sensor_id;sensor_type;location;lat;lon;timestamp;pressure;altitude;pressure_sealevel;temperature;humidity
3096;BME280;1558;42.700;23.360;2023-05-12T00:00:25;95592.38;;;9.37;100.00
3096;BME280;1558;42.700;23.360;2023-05-12T00:02:55;95590.81;;;9.36;100.00
3096;BME280;1558;42.700;23.360;2023-05-12T00:05:23;95583.03;;;9.26;100.00
3096;BME280;1558;42.700;23.360;2023-05-12T00:07:51;95593.31;;;9.32;100.00
3096;BME280;1558;42.700;23.360;2023-05-12T00:10:19;95587.81;;;9.29;100.00
3096;BME280;1558;42.700;23.360;2023-05-12T00:12:48;95594.59;;;9.26;100.00
3096;BME280;1558;42.700;23.360;2023-05-12T00:15:16;95389.22;;;7.97;100.00
3096;BME280;1558;42.700;23.360;2023-05-12T00:17:45;95540.59;;;8.89;100.00
3096;BME280;1558;42.700;23.360;2023-05-12T00:20:16;95588.56;;;9.21;100.00
3096;BME280;1558;42.700;23.360;2023-05-12T00:22:44;95586.50;;;9.18;100.00
3096;BME280;1558;42.700;23.360;2023-05-12T00:25:12;95589.03;;;9.14;100.00
3096;BME280;1558;42.700;23.360;2023-05-12T00:27:40;95595.22;;;9.15;100.00
3096;BME280;1558;42.700;23.360;2023-05-12T00:30:09;95485.47;;;8.43;100.00
3096;BME280;1558;42.700;23.360;2023-05-12T00:32:40;95576.53;;;9.10;100.00
3096;BME280;1558;42.700;23.360;2023-05-12T00:35:09;95592.22;;;9.08;100.00
3096;BME280;1558;42.700;23.360;2023-05-12T00:37:38;95597.88;;;9.06;100.00
3096;BME280;1558;42.700;23.360;2023-05-12T00:40:07;95592.84;;;9.05;100.00
3096;BME280;1558;42.700;23.360;2023-05-12T00:42:35;95591.56;;;9.02;100.00
3096;BME280;1558;42.700;23.360;2023-05-12T00:45:04;95588.69;;;8.99;100.00
3096;BME280;1558;42.700;23.360;2023-05-12T00:47:33;95578.88;;;8.85;100.00
3096;BME280;1558;42.700;23.360;2023-05-12T00:50:02;95602.13;;;8.90;100.00
3096;BME280;1558;42.700;23.360;2023-05-12T00:52:30;95600.06;;;8.87;100.00
3096;BME280;1558;42.700;23.360;2023-05-12T00:55:00;95603.22;;;8.80;100.00
3096;BME280;1558;42.700;23.360;2023-05-12T00:57:29;95591.19;;;8.78;100.00
3096;BME280;1558;42.700;23.360;2023-05-12T00:59:57;95604.47;;;8.74;100.00
3096;BME280;1558;42.700;23.360;2023-05-12T01:02:25;95602.41;;;8.71;100.00
3096;BME280;1558;42.700;23.360;2023-05-12T01:04:53;95603.00;;;8.68;100.00
3096;BME280;1558;42.700;23.360;2023-05-12T01:07:21;95608.53;;;8.63;100.00
3096;BME280;1558;42.700;23.360;2023-05-12T01:09:53;95612.47;;;8.57;100.00
3096;BME280;1558;42.700;23.360;2023-05-12T01:12:23;95546.84;;;8.19;100.00
3096;BME280;1558;42.700;23.360;2023-05-12T01:14:54;95607.84;;;8.49;100.00
3096;BME280;1558;42.700;23.360;2023-05-12T01:17:26;95556.44;;;8.11;100.00
3096;BME280;1558;42.700;23.360;2023-05-12T01:19:57;95550.19;;;7.94;100.00
3096;BME280;1558;42.700;23.360;2023-05-12T01:22:28;95541.28;;;7.85;100.00
3096;BME280;1558;42.700;23.360;2023-05-12T01:24:58;95607.13;;;8.27;100.00
3096;BME280;1558;42.700;23.360;2023-05-12T01:27:28;95616.81;;;8.14;100.00
3096;BME280;1558;42.700;23.360;2023-05-12T01:29:59;95624.16;;;8.00;100.00
3096;BME280;1558;42.700;23.360;2023-05-12T01:32:30;95597.56;;;7.68;100.00
3096;BME280;1558;42.700;23.360;2023-05-12T01:34:58;95618.94;;;7.37;100.00
3096;BME280;1558;42.700;23.360;2023-05-12T01:37:26;95613.97;;;7.08;100.00
3096;BME280;1558;42.700;23.360;2023-05-12T01:39:55;95620.75;;;6.65;100.00
3096;BME280;1558;42.700;23.360;2023-05-12T01:42:23;95631.19;;;6.53;100.00
3096;BME280;1558;42.700;23.360;2023-05-12T01:44:53;95633.06;;;6.52;100.00
3096;BME280;1558;42.700;23.360;2023-05-12T01:47:21;95639.22;;;6.53;100.00
3096;BME280;1558;42.700;23.360;2023-05-12T01:49:50;95645.25;;;6.45;100.00
3096;BME280;1558;42.700;23.360;2023-05-12T01:52:21;95642.56;;;6.45;100.00
3096;BME280;1558;42.700;23.360;2023-05-12T01:54:50;95643.97;;;6.42;100.00
3096;BME280;1558;42.700;23.360;2023-05-12T01:57:18;95642.56;;;6.45;100.00
3096;BME280;1558;42.700;23.360;2023-05-12T01:59:48;95643.06;;;6.47;100.00
3096;BME280;1558;42.700;23.360;2023-05-12T02:02:17;95636.94;;;6.46;100.00
3096;BME280;1558;42.700;23.360;2023-05-12T02:04:46;95642.00;;;6.48;100.00
3096;BME280;1558;42.700;23.360;2023-05-12T02:07:14;95644.97;;;6.46;100.00
3096;BME280;1558;42.700;23.360;2023-05-12T02:09:42;95646.63;;;6.42;100.00
3096;BME280;1558;42.700;23.360;2023-05-12T02:12:10;95644.75;;;6.43;100.00
3096;BME280;1558;42.700;23.360;2023-05-12T02:14:39;95638.09;;;6.40;100.00
3096;BME280;1558;42.700;23.360;2023-05-12T02:17:09;95646.13;;;6.40;100.00
3096;BME280;1558;42.700;23.360;2023-05-12T02:19:38;95639.97;;;6.40;100.00
3096;BME280;1558;42.700;23.360;2023-05-12T02:22:06;95645.25;;;6.45;100.00
3096;BME280;1558;42.700;23.360;2023-05-12T02:24:36;95642.97;;;6.38;100.00
3096;BME280;1558;42.700;23.360;2023-05-12T02:27:04;95636.81;;;6.38;100.00
3096;BME280;1558;42.700;23.360;2023-05-12T02:29:32;95633.16;;;6.34;100.00
3096;BME280;1558;42.700;23.360;2023-05-12T02:32:00;95631.53;;;6.33;100.00
3096;BME280;1558;42.700;23.360;2023-05-12T02:34:31;95641.50;;;6.32;100.00
3096;BME280;1558;42.700;23.360;2023-05-12T02:37:00;95630.25;;;6.30;100.00
3096;BME280;1558;42.700;23.360;2023-05-12T02:39:29;95637.78;;;6.28;100.00
3096;BME280;1558;42.700;23.360;2023-05-12T02:41:57;95635.91;;;6.29;100.00
3096;BME280;1558;42.700;23.360;2023-05-12T02:44:25;95630.94;;;6.22;100.00
3096;BME280;1558;42.700;23.360;2023-05-12T02:46:53;95633.63;;;6.22;100.00
3096;BME280;1558;42.700;23.360;2023-05-12T02:49:23;95633.41;;;6.19;100.00
3096;BME280;1558;42.700;23.360;2023-05-12T02:51:51;95627.25;;;6.18;100.00
3096;BME280;1558;42.700;23.360;2023-05-12T02:54:22;95630.53;;;6.15;100.00
3096;BME280;1558;42.700;23.360;2023-05-12T02:56:50;95637.47;;;6.16;100.00
3096;BME280;1558;42.700;23.360;2023-05-12T02:59:18;95626.47;;;6.18;100.00
3096;BME280;1558;42.700;23.360;2023-05-12T03:01:47;95623.31;;;6.16;100.00
3096;BME280;1558;42.700;23.360;2023-05-12T03:04:15;95628.06;;;6.19;100.00
3096;BME280;1558;42.700;23.360;2023-05-12T03:06:43;95628.06;;;6.19;100.00
3096;BME280;1558;42.700;23.360;2023-05-12T03:09:11;95636.59;;;6.21;100.00
3096;BME280;1558;42.700;23.360;2023-05-12T03:11:41;95628.28;;;6.22;100.00
3096;BME280;1558;42.700;23.360;2023-05-12T03:14:08;95634.44;;;6.23;100.00
3096;BME280;1558;42.700;23.360;2023-05-12T03:16:36;95630.94;;;6.22;100.00
3096;BME280;1558;42.700;23.360;2023-05-12T03:19:04;95638.69;;;6.24;100.00
3096;BME280;1558;42.700;23.360;2023-05-12T03:21:33;95637.59;;;6.25;100.00
3096;BME280;1558;42.700;23.360;2023-05-12T03:24:01;95643.53;;;6.22;100.00
3096;BME280;1558;42.700;23.360;2023-05-12T03:26:29;95627.47;;;6.22;100.00
3096;BME280;1558;42.700;23.360;2023-05-12T03:28:58;95640.28;;;6.25;100.00
3096;BME280;1558;42.700;23.360;2023-05-12T03:31:26;95647.22;;;6.26;100.00
3096;BME280;1558;42.700;23.360;2023-05-12T03:33:54;95639.25;;;6.21;100.00
3096;BME280;1558;42.700;23.360;2023-05-12T03:36:22;95656.34;;;6.25;100.00
3096;BME280;1558;42.700;23.360;2023-05-12T03:38:50;95645.91;;;6.23;100.00
3096;BME280;1558;42.700;23.360;2023-05-12T03:41:18;95644.53;;;6.26;100.00
3096;BME280;1558;42.700;23.360;2023-05-12T03:43:47;95647.69;;;6.28;100.00
3096;BME280;1558;42.700;23.360;2023-05-12T03:46:17;95652.47;;;6.31;100.00
3096;BME280;1558;42.700;23.360;2023-05-12T03:48:46;95652.97;;;6.33;100.00
3096;BME280;1558;42.700;23.360;2023-05-12T03:51:14;95646.84;;;6.32;100.00
3096;BME280;1558;42.700;23.360;2023-05-12T03:53:42;95653.47;;;6.35;100.00
3096;BME280;1558;42.700;23.360;2023-05-12T03:56:12;95645.97;;;6.37;100.00
3096;BME280;1558;42.700;23.360;2023-05-12T03:58:41;95648.09;;;6.35;100.00
3096;BME280;1558;42.700;23.360;2023-05-12T04:01:09;95646.22;;;6.35;100.00
3096;BME280;1558;42.700;23.360;2023-05-12T04:03:38;95650.69;;;6.40;100.00
3096;BME280;1558;42.700;23.360;2023-05-12T04:06:07;95653.91;;;6.42;100.00
3096;BME280;1558;42.700;23.360;2023-05-12T04:08:36;95662.44;;;6.44;100.00
3096;BME280;1558;42.700;23.360;2023-05-12T04:11:08;95658.66;;;6.45;100.00
3096;BME280;1558;42.700;23.360;2023-05-12T04:13:36;95660.84;;;6.43;100.00
3096;BME280;1558;42.700;23.360;2023-05-12T04:16:04;95663.19;;;6.44;100.00
3096;BME280;1558;42.700;23.360;2023-05-12T04:18:34;95673.16;;;6.44;100.00
3096;BME280;1558;42.700;23.360;2023-05-12T04:21:05;95669.09;;;6.46;100.00
3096;BME280;1558;42.700;23.360;2023-05-12T04:23:33;95671.47;;;6.48;100.00
3096;BME280;1558;42.700;23.360;2023-05-12T04:26:02;95661.22;;;6.50;100.00
3096;BME280;1558;42.700;23.360;2023-05-12T04:28:31;95656.69;;;6.50;100.00
3096;BME280;1558;42.700;23.360;2023-05-12T04:33:47;95667.00;;;6.57;100.00
3096;BME280;1558;42.700;23.360;2023-05-12T04:36:17;95668.59;;;6.58;100.00
3096;BME280;1558;42.700;23.360;2023-05-12T04:38:46;95662.13;;;6.59;100.00
3096;BME280;1558;42.700;23.360;2023-05-12T04:41:14;95667.97;;;6.61;100.00
3096;BME280;1558;42.700;23.360;2023-05-12T04:43:44;95669.00;;;6.65;100.00
3096;BME280;1558;42.700;23.360;2023-05-12T04:46:15;95657.69;;;6.68;100.00
3096;BME280;1558;42.700;23.360;2023-05-12T04:48:43;95666.22;;;6.70;100.00
3096;BME280;1558;42.700;23.360;2023-05-12T04:51:11;95663.81;;;6.68;100.00
3096;BME280;1558;42.700;23.360;2023-05-12T04:53:41;95660.06;;;6.69;100.00
3096;BME280;1558;42.700;23.360;2023-05-12T04:56:10;95674.84;;;6.67;100.00
3096;BME280;1558;42.700;23.360;2023-05-12T04:58:38;95666.00;;;6.66;100.00
3096;BME280;1558;42.700;23.360;2023-05-12T05:01:06;95672.56;;;6.74;100.00
3096;BME280;1558;42.700;23.360;2023-05-12T05:03:35;95675.56;;;6.72;100.00
3096;BME280;1558;42.700;23.360;2023-05-12T05:06:06;95673.66;;;6.73;100.00
3096;BME280;1558;42.700;23.360;2023-05-12T05:08:34;95662.75;;;6.69;100.00
3096;BME280;1558;42.700;23.360;2023-05-12T05:11:03;95666.72;;;6.72;100.00
3096;BME280;1558;42.700;23.360;2023-05-12T05:13:31;95674.84;;;6.67;100.00
3096;BME280;1558;42.700;23.360;2023-05-12T05:16:00;95667.78;;;6.71;100.00
3096;BME280;1558;42.700;23.360;2023-05-12T05:18:28;95662.25;;;6.67;100.00
3096;BME280;1558;42.700;23.360;2023-05-12T05:20:56;95675.16;;;6.65;100.00
3096;BME280;1558;42.700;23.360;2023-05-12T05:23:25;95683.38;;;6.69;100.00
3096;BME280;1558;42.700;23.360;2023-05-12T05:25:53;95678.13;;;6.64;100.00
3096;BME280;1558;42.700;23.360;2023-05-12T05:28:22;95673.56;;;6.64;100.00
3096;BME280;1558;42.700;23.360;2023-05-12T05:30:50;95680.31;;;6.62;100.00
3096;BME280;1558;42.700;23.360;2023-05-12T05:33:18;95676.53;;;6.63;100.00
3096;BME280;1558;42.700;23.360;2023-05-12T05:35:48;95677.53;;;6.67;100.00
3096;BME280;1558;42.700;23.360;2023-05-12T05:38:16;95683.88;;;6.71;100.00
3096;BME280;1558;42.700;23.360;2023-05-12T05:40:44;95683.28;;;6.74;100.00
3096;BME280;1558;42.700;23.360;2023-05-12T05:43:21;95683.78;;;6.76;100.00
3096;BME280;1558;42.700;23.360;2023-05-12T05:45:49;95681.19;;;6.71;100.00
3096;BME280;1558;42.700;23.360;2023-05-12T05:48:18;95689.25;;;6.71;100.00
3096;BME280;1558;42.700;23.360;2023-05-12T05:50:46;95677.13;;;6.73;100.00
3096;BME280;1558;42.700;23.360;2023-05-12T05:53:15;95689.44;;;6.74;100.00
3096;BME280;1558;42.700;23.360;2023-05-12T05:55:45;95688.34;;;6.75;100.00
3096;BME280;1558;42.700;23.360;2023-05-12T05:58:14;95699.88;;;6.76;100.00
3096;BME280;1558;42.700;23.360;2023-05-12T06:00:47;95694.00;;;6.74;100.00
3096;BME280;1558;42.700;23.360;2023-05-12T06:03:20;95692.22;;;6.83;100.00
3096;BME280;1558;42.700;23.360;2023-05-12T06:05:48;95688.47;;;6.84;100.00
3096;BME280;1558;42.700;23.360;2023-05-12T06:08:16;95693.03;;;6.83;100.00
3096;BME280;1558;42.700;23.360;2023-05-12T06:10:44;95686.19;;;6.91;100.00
3096;BME280;1558;42.700;23.360;2023-05-12T06:13:13;95694.41;;;6.95;100.00
3096;BME280;1558;42.700;23.360;2023-05-12T06:15:41;95693.03;;;6.97;100.00
3096;BME280;1558;42.700;23.360;2023-05-12T06:18:10;95697.56;;;6.97;100.00
3096;BME280;1558;42.700;23.360;2023-05-12T06:20:39;95693.03;;;6.97;100.00
3096;BME280;1558;42.700;23.360;2023-05-12T06:23:09;95701.56;;;6.99;100.00
3096;BME280;1558;42.700;23.360;2023-05-12T06:25:37;95700.38;;;7.05;100.00
3096;BME280;1558;42.700;23.360;2023-05-12T06:28:06;95710.63;;;7.03;100.00
3096;BME280;1558;42.700;23.360;2023-05-12T06:30:34;95719.84;;;6.97;100.00
3096;BME280;1558;42.700;23.360;2023-05-12T06:33:02;95709.59;;;6.99;100.00
3096;BME280;1558;42.700;23.360;2023-05-12T06:35:32;95708.13;;;7.07;100.00
3096;BME280;1558;42.700;23.360;2023-05-12T06:38:00;95728.00;;;7.06;100.00
3096;BME280;1558;42.700;23.360;2023-05-12T06:40:28;95711.91;;;7.06;100.00
3096;BME280;1558;42.700;23.360;2023-05-12T06:42:56;95714.59;;;7.06;100.00
3096;BME280;1558;42.700;23.360;2023-05-12T06:45:24;95713.69;;;7.10;100.00
3096;BME280;1558;42.700;23.360;2023-05-12T06:47:52;95702.97;;;7.10;100.00
3096;BME280;1558;42.700;23.360;2023-05-12T06:50:21;95713.88;;;7.14;100.00
3096;BME280;1558;42.700;23.360;2023-05-12T06:52:50;95718.03;;;7.06;100.00
3096;BME280;1558;42.700;23.360;2023-05-12T06:55:19;95719.06;;;7.10;100.00
3096;BME280;1558;42.700;23.360;2023-05-12T06:57:48;95716.28;;;7.15;100.00
3096;BME280;1558;42.700;23.360;2023-05-12T07:00:17;95727.66;;;7.21;100.00
3096;BME280;1558;42.700;23.360;2023-05-12T07:02:45;95715.66;;;7.18;100.00
3096;BME280;1558;42.700;23.360;2023-05-12T07:05:14;95714.56;;;7.19;100.00
3096;BME280;1558;42.700;23.360;2023-05-12T07:07:43;95705.81;;;7.27;100.00
3096;BME280;1558;42.700;23.360;2023-05-12T07:10:13;95707.31;;;7.33;100.00
3096;BME280;1558;42.700;23.360;2023-05-12T07:12:42;95709.00;;;7.29;100.00
3096;BME280;1558;42.700;23.360;2023-05-12T07:15:11;95719.84;;;7.24;100.00
3096;BME280;1558;42.700;23.360;2023-05-12T07:17:41;95726.78;;;7.25;100.00
3096;BME280;1558;42.700;23.360;2023-05-12T07:20:10;95726.28;;;7.23;100.00
3096;BME280;1558;42.700;23.360;2023-05-12T07:22:38;95724.56;;;7.27;100.00
3096;BME280;1558;42.700;23.360;2023-05-12T07:25:07;95730.25;;;7.26;100.00
3096;BME280;1558;42.700;23.360;2023-05-12T07:27:36;95729.75;;;7.24;100.00
3096;BME280;1558;42.700;23.360;2023-05-12T07:30:05;95727.69;;;7.34;100.00
3096;BME280;1558;42.700;23.360;2023-05-12T07:32:34;95717.50;;;7.45;100.00
3096;BME280;1558;42.700;23.360;2023-05-12T07:35:02;95721.38;;;7.53;100.00
3096;BME280;1558;42.700;23.360;2023-05-12T07:37:34;95726.97;;;7.29;100.00
3096;BME280;1558;42.700;23.360;2023-05-12T07:40:03;95723.78;;;7.40;100.00
3096;BME280;1558;42.700;23.360;2023-05-12T07:42:31;95722.56;;;7.46;100.00
3096;BME280;1558;42.700;23.360;2023-05-12T07:45:02;95720.69;;;7.47;100.00
3096;BME280;1558;42.700;23.360;2023-05-12T07:47:30;95721.16;;;7.63;100.00
3096;BME280;1558;42.700;23.360;2023-05-12T07:49:58;95725.63;;;7.67;100.00
3096;BME280;1558;42.700;23.360;2023-05-12T07:52:26;95714.47;;;7.74;100.00
3096;BME280;1558;42.700;23.360;2023-05-12T07:54:55;95732.28;;;7.70;100.00
3096;BME280;1558;42.700;23.360;2023-05-12T07:57:23;95711.78;;;7.74;100.00
3096;BME280;1558;42.700;23.360;2023-05-12T07:59:52;95716.72;;;7.94;100.00
3096;BME280;1558;42.700;23.360;2023-05-12T08:02:22;95713.81;;;8.26;100.00
3096;BME280;1558;42.700;23.360;2023-05-12T08:04:51;95707.06;;;8.37;100.00
3096;BME280;1558;42.700;23.360;2023-05-12T08:07:21;95706.38;;;8.54;100.00
3096;BME280;1558;42.700;23.360;2023-05-12T08:09:53;95700.50;;;8.82;100.00
3096;BME280;1558;42.700;23.360;2023-05-12T08:12:31;95701.88;;;9.02;100.00
3096;BME280;1558;42.700;23.360;2023-05-12T08:15:01;95718.31;;;9.57;100.00
3096;BME280;1558;42.700;23.360;2023-05-12T08:17:31;95716.44;;;9.75;100.00
3096;BME280;1558;42.700;23.360;2023-05-12T08:19:59;95716.13;;;9.76;100.00
3096;BME280;1558;42.700;23.360;2023-05-12T08:22:34;95717.09;;;10.06;100.00
3096;BME280;1558;42.700;23.360;2023-05-12T08:25:06;95702.38;;;9.86;100.00
3096;BME280;1558;42.700;23.360;2023-05-12T08:27:38;95706.97;;;10.20;100.00
3096;BME280;1558;42.700;23.360;2023-05-12T08:30:07;95699.38;;;10.22;100.00
3096;BME280;1558;42.700;23.360;2023-05-12T08:32:37;95712.81;;;10.48;100.00
3096;BME280;1558;42.700;23.360;2023-05-12T08:35:05;95707.25;;;10.53;100.00
3096;BME280;1558;42.700;23.360;2023-05-12T08:37:34;95700.44;;;10.30;100.00
3096;BME280;1558;42.700;23.360;2023-05-12T08:40:10;95715.19;;;10.32;100.00
3096;BME280;1558;42.700;23.360;2023-05-12T08:42:42;95705.00;;;10.63;100.00
3096;BME280;1558;42.700;23.360;2023-05-12T08:45:11;95705.91;;;10.67;100.00
3096;BME280;1558;42.700;23.360;2023-05-12T08:47:40;95670.13;;;10.50;100.00
3096;BME280;1558;42.700;23.360;2023-05-12T08:50:11;95666.94;;;10.56;100.00
3096;BME280;1558;42.700;23.360;2023-05-12T08:52:41;95650.63;;;10.53;100.00
3096;BME280;1558;42.700;23.360;2023-05-12T08:55:09;95694.22;;;11.01;100.00
3096;BME280;1558;42.700;23.360;2023-05-12T08:57:39;95686.69;;;10.86;100.00
3096;BME280;1558;42.700;23.360;2023-05-12T09:00:12;95701.09;;;10.90;100.00
3096;BME280;1558;42.700;23.360;2023-05-12T09:02:42;95629.63;;;10.67;100.00
3096;BME280;1558;42.700;23.360;2023-05-12T09:05:20;95701.38;;;11.35;100.00
3096;BME280;1558;42.700;23.360;2023-05-12T09:07:52;95676.38;;;11.17;100.00
3096;BME280;1558;42.700;23.360;2023-05-12T09:10:23;95691.69;;;11.34;100.00
3096;BME280;1558;42.700;23.360;2023-05-12T09:13:03;95673.84;;;11.41;100.00
3096;BME280;1558;42.700;23.360;2023-05-12T09:15:38;95628.44;;;11.14;100.00
3096;BME280;1558;42.700;23.360;2023-05-12T09:18:10;95662.31;;;11.32;100.00
3096;BME280;1558;42.700;23.360;2023-05-12T09:20:38;95669.41;;;11.45;100.00
3096;BME280;1558;42.700;23.360;2023-05-12T09:23:13;95658.88;;;11.52;100.00
3096;BME280;1558;42.700;23.360;2023-05-12T09:25:42;95680.72;;;11.68;100.00
3096;BME280;1558;42.700;23.360;2023-05-12T09:28:10;95670.41;;;11.62;100.00
3096;BME280;1558;42.700;23.360;2023-05-12T09:30:38;95673.31;;;11.77;100.00
3096;BME280;1558;42.700;23.360;2023-05-12T09:33:11;95664.38;;;11.85;100.00
3096;BME280;1558;42.700;23.360;2023-05-12T09:35:40;95608.44;;;11.56;100.00
3096;BME280;1558;42.700;23.360;2023-05-12T09:38:09;95652.75;;;11.85;100.00
3096;BME280;1558;42.700;23.360;2023-05-12T09:40:38;95611.63;;;11.58;100.00
3096;BME280;1558;42.700;23.360;2023-05-12T09:43:08;95645.13;;;11.87;100.00
3096;BME280;1558;42.700;23.360;2023-05-12T09:45:40;95658.03;;;12.02;100.00
3096;BME280;1558;42.700;23.360;2023-05-12T09:48:12;95657.94;;;12.31;100.00
3096;BME280;1558;42.700;23.360;2023-05-12T09:50:47;95663.34;;;12.31;100.00
3096;BME280;1558;42.700;23.360;2023-05-12T09:53:16;95663.09;;;12.36;100.00
3096;BME280;1558;42.700;23.360;2023-05-12T09:55:46;95610.16;;;12.02;100.00
3096;BME280;1558;42.700;23.360;2023-05-12T09:58:16;95650.56;;;12.52;100.00
3096;BME280;1558;42.700;23.360;2023-05-12T10:00:45;95645.00;;;12.49;95.48
3096;BME280;1558;42.700;23.360;2023-05-12T10:03:18;95627.88;;;12.45;96.32
3096;BME280;1558;42.700;23.360;2023-05-12T10:05:53;95658.81;;;12.68;91.89
3096;BME280;1558;42.700;23.360;2023-05-12T10:08:34;95589.13;;;12.20;89.23
3096;BME280;1558;42.700;23.360;2023-05-12T10:11:04;95643.13;;;12.61;89.00
3096;BME280;1558;42.700;23.360;2023-05-12T10:13:35;95638.66;;;13.02;94.48
3096;BME280;1558;42.700;23.360;2023-05-12T10:16:06;95646.69;;;13.10;90.65
3096;BME280;1558;42.700;23.360;2023-05-12T10:18:36;95633.06;;;13.07;95.13
3096;BME280;1558;42.700;23.360;2023-05-12T10:21:04;95639.38;;;13.11;92.40
3096;BME280;1558;42.700;23.360;2023-05-12T10:23:36;95639.34;;;12.99;93.28
3096;BME280;1558;42.700;23.360;2023-05-12T10:26:09;95571.63;;;12.62;88.70
3096;BME280;1558;42.700;23.360;2023-05-12T10:28:38;95631.59;;;13.33;86.80
3096;BME280;1558;42.700;23.360;2023-05-12T10:31:06;95627.56;;;13.55;83.86
3096;BME280;1558;42.700;23.360;2023-05-12T10:33:36;95607.91;;;13.70;84.44
3096;BME280;1558;42.700;23.360;2023-05-12T10:36:15;95630.47;;;14.14;78.77
3096;BME280;1558;42.700;23.360;2023-05-12T10:38:46;95625.75;;;14.26;78.88
3096;BME280;1558;42.700;23.360;2023-05-12T10:41:15;95613.84;;;14.15;74.45
3096;BME280;1558;42.700;23.360;2023-05-12T10:43:47;95622.72;;;14.00;74.00
3096;BME280;1558;42.700;23.360;2023-05-12T10:46:17;95635.69;;;14.07;72.34
3096;BME280;1558;42.700;23.360;2023-05-12T10:48:52;95633.06;;;14.10;70.97
3096;BME280;1558;42.700;23.360;2023-05-12T10:51:23;95626.28;;;14.16;71.40
3096;BME280;1558;42.700;23.360;2023-05-12T10:53:58;95588.31;;;14.16;71.85
3096;BME280;1558;42.700;23.360;2023-05-12T10:56:28;95607.34;;;14.32;70.48
3096;BME280;1558;42.700;23.360;2023-05-12T10:59:13;95617.53;;;14.35;68.51
3096;BME280;1558;42.700;23.360;2023-05-12T11:02:05;95617.38;;;14.59;68.48
3096;BME280;1558;42.700;23.360;2023-05-12T11:04:46;95608.19;;;14.64;68.55
3096;BME280;1558;42.700;23.360;2023-05-12T11:07:16;95622.38;;;14.88;69.03
3096;BME280;1558;42.700;23.360;2023-05-12T11:09:48;95624.63;;;15.33;68.25
3096;BME280;1558;42.700;23.360;2023-05-12T11:12:26;95603.72;;;15.18;66.22
3096;BME280;1558;42.700;23.360;2023-05-12T11:14:54;95622.84;;;15.91;67.76
3096;BME280;1558;42.700;23.360;2023-05-12T11:17:23;95633.50;;;15.81;62.34
3096;BME280;1558;42.700;23.360;2023-05-12T11:19:52;95636.91;;;15.27;60.63
3096;BME280;1558;42.700;23.360;2023-05-12T11:22:22;95608.47;;;14.90;62.55
3096;BME280;1558;42.700;23.360;2023-05-12T11:24:51;95628.06;;;15.15;59.84
3096;BME280;1558;42.700;23.360;2023-05-12T11:27:20;95629.22;;;14.98;58.32
3096;BME280;1558;42.700;23.360;2023-05-12T11:29:56;95639.03;;;14.87;58.70
3096;BME280;1558;42.700;23.360;2023-05-12T11:32:24;95628.44;;;14.82;59.78
3096;BME280;1558;42.700;23.360;2023-05-12T11:34:54;95634.56;;;15.10;59.40
3096;BME280;1558;42.700;23.360;2023-05-12T11:37:23;95629.16;;;14.95;59.06
3096;BME280;1558;42.700;23.360;2023-05-12T11:39:51;95581.28;;;14.74;59.90
3096;BME280;1558;42.700;23.360;2023-05-12T11:42:19;95651.09;;;14.74;59.97
3096;BME280;1558;42.700;23.360;2023-05-12T11:44:51;95636.47;;;14.63;60.35
3096;BME280;1558;42.700;23.360;2023-05-12T11:47:21;95611.84;;;14.40;60.02
3096;BME280;1558;42.700;23.360;2023-05-12T11:49:51;95629.59;;;14.38;60.61
3096;BME280;1558;42.700;23.360;2023-05-12T11:52:23;95617.28;;;14.40;60.14
3096;BME280;1558;42.700;23.360;2023-05-12T11:54:52;95614.38;;;14.21;59.15
3096;BME280;1558;42.700;23.360;2023-05-12T11:57:24;95634.16;;;14.21;59.52
3096;BME280;1558;42.700;23.360;2023-05-12T11:59:56;95630.38;;;14.10;59.25
3096;BME280;1558;42.700;23.360;2023-05-12T12:02:26;95547.84;;;13.84;59.94
3096;BME280;1558;42.700;23.360;2023-05-12T12:04:55;95618.09;;;14.29;62.27
3096;BME280;1558;42.700;23.360;2023-05-12T12:07:32;95550.69;;;13.87;60.53
3096;BME280;1558;42.700;23.360;2023-05-12T12:10:10;95622.97;;;14.23;59.41
3096;BME280;1558;42.700;23.360;2023-05-12T12:12:39;95628.25;;;14.32;61.76
3096;BME280;1558;42.700;23.360;2023-05-12T12:15:08;95641.16;;;14.22;64.96
3096;BME280;1558;42.700;23.360;2023-05-12T12:17:36;95635.97;;;14.17;66.14
3096;BME280;1558;42.700;23.360;2023-05-12T12:20:07;95638.63;;;14.42;67.00
3096;BME280;1558;42.700;23.360;2023-05-12T12:22:38;95636.53;;;14.51;67.45
3096;BME280;1558;42.700;23.360;2023-05-12T12:25:07;95640.47;;;14.53;64.77
3096;BME280;1558;42.700;23.360;2023-05-12T12:27:35;95648.94;;;14.36;63.36
3096;BME280;1558;42.700;23.360;2023-05-12T12:30:04;95630.13;;;14.15;63.60
3096;BME280;1558;42.700;23.360;2023-05-12T12:32:33;95644.91;;;14.30;64.39
3096;BME280;1558;42.700;23.360;2023-05-12T12:35:01;95638.47;;;14.22;64.44
3096;BME280;1558;42.700;23.360;2023-05-12T12:37:29;95555.28;;;13.71;65.55
3096;BME280;1558;42.700;23.360;2023-05-12T12:39:59;95645.09;;;14.37;66.23
3096;BME280;1558;42.700;23.360;2023-05-12T12:42:34;95616.31;;;14.20;65.18
3096;BME280;1558;42.700;23.360;2023-05-12T12:45:04;95628.41;;;14.23;65.86
3096;BME280;1558;42.700;23.360;2023-05-12T12:47:32;95615.56;;;14.08;65.51
3096;BME280;1558;42.700;23.360;2023-05-12T12:50:00;95614.44;;;14.09;66.71
3096;BME280;1558;42.700;23.360;2023-05-12T12:52:29;95636.66;;;14.14;65.48
3096;BME280;1558;42.700;23.360;2023-05-12T12:54:58;95627.00;;;14.01;65.38
3096;BME280;1558;42.700;23.360;2023-05-12T12:57:28;95648.16;;;13.96;65.40
3096;BME280;1558;42.700;23.360;2023-05-12T12:59:56;95647.59;;;14.02;66.34
3096;BME280;1558;42.700;23.360;2023-05-12T13:02:24;95618.59;;;14.18;66.42
3096;BME280;1558;42.700;23.360;2023-05-12T13:04:52;95629.41;;;14.31;65.74
3096;BME280;1558;42.700;23.360;2023-05-12T13:07:21;95622.28;;;13.98;64.20
3096;BME280;1558;42.700;23.360;2023-05-12T13:09:49;95642.38;;;14.09;64.77
3096;BME280;1558;42.700;23.360;2023-05-12T13:12:18;95622.66;;;14.12;64.89
3096;BME280;1558;42.700;23.360;2023-05-12T13:14:46;95605.34;;;13.89;64.17
3096;BME280;1558;42.700;23.360;2023-05-12T13:17:14;95621.94;;;14.00;64.33
3096;BME280;1558;42.700;23.360;2023-05-12T13:19:43;95628.59;;;14.02;64.14
3096;BME280;1558;42.700;23.360;2023-05-12T13:22:11;95635.22;;;14.05;64.77
3096;BME280;1558;42.700;23.360;2023-05-12T13:24:39;95611.19;;;14.31;65.68